Larkspur — C6BR6 — position and weather

sailwx.info

Track history (hours):
 
Tides and Currents Weather Stations Pressure Air Temp Water Temp Dewpoint Dewpoint Depression Visibility Wind Speed Wind Dir Waves Ship Positions

Larkspur

Operator: Transeuropa Lines

Last reported at 2016-Mar-09 19:32 UTC. Time now 2016-May-04 00:00 UTC.
Position N 01°54' E 102°21'.
Warning: this ship's position is 55 days out of date.

Length 225 m; draft 8 m.

Type: Tanker. MMSI: 311000344.

Date/timePositionNaut miles runAvg speedWind from/ knotsBaromVisibWave heightAir tempDewpointWater temp
2016-Mar-09 19:32N 01°54' E 102°21'1616.0
2016-Mar-09 18:33N 01°47' E 102°35'1515.5
2016-Mar-09 17:33N 01°40' E 102°49'1514.5
2016-Mar-09 16:32N 01°32' E 103°01'5112.2
2016-Mar-09 12:18N 01°10' E 103°48'1215.7
2016-Mar-09 11:33N 01°15' E 103°58'9 0.6
2016-Mar-08 20:03N 01°15' E 104°07'713.6
2016-Mar-08 19:33N 01°14' E 104°00'1413.6
2016-Mar-08 18:33N 01°10' E 103°48'7113.2
2016-Mar-08 13:09N 01°40' E 102°44'914.9
2016-Mar-08 12:34N 01°44' E 102°36'1111.0
2016-Mar-08 11:33N 01°43' E 102°47'1414.1
2016-Mar-08 10:33N 01°35' E 102°58'4912.1
2016-Mar-08 06:34N 01°11' E 103°40'3 0.1
2016-Mar-07 10:32N 01°10' E 103°43'4 4.0
2016-Mar-07 09:31N 01°10' E 103°47'1010.7
2016-Mar-07 08:32N 01°15' E 103°57'11 1.2
2016-Mar-06 23:33N 01°16' E 104°08'3 2.6
2016-Mar-06 22:33N 01°16' E 104°10'  
Track history (hours):
 
Tides and Currents Weather Stations Pressure Air Temp Water Temp Dewpoint Dewpoint Depression Visibility Wind Speed Wind Dir Waves Ship Positions

Larkspur

Operator: Transeuropa Lines

Last reported at 2016-Mar-09 19:32 UTC. Time now 2016-May-04 00:00 UTC.
Position N 01°54' E 102°21'.
Warning: this ship's position is 55 days out of date.

Length 225 m; draft 8 m.

Type: Tanker. MMSI: 311000344.

Date/timePositionNaut miles runAvg speedWind from/ knotsBaromVisibWave heightAir tempDewpointWater temp
2016-Mar-09 19:32N 01°54' E 102°21'1616.0
2016-Mar-09 18:33N 01°47' E 102°35'1515.5
2016-Mar-09 17:33N 01°40' E 102°49'1514.5
2016-Mar-09 16:32N 01°32' E 103°01'5112.2
2016-Mar-09 12:18N 01°10' E 103°48'1215.7
2016-Mar-09 11:33N 01°15' E 103°58'9 0.6
2016-Mar-08 20:03N 01°15' E 104°07'713.6
2016-Mar-08 19:33N 01°14' E 104°00'1413.6
2016-Mar-08 18:33N 01°10' E 103°48'7113.2
2016-Mar-08 13:09N 01°40' E 102°44'914.9
2016-Mar-08 12:34N 01°44' E 102°36'1111.0
2016-Mar-08 11:33N 01°43' E 102°47'1414.1
2016-Mar-08 10:33N 01°35' E 102°58'4912.1
2016-Mar-08 06:34N 01°11' E 103°40'3 0.1
2016-Mar-07 10:32N 01°10' E 103°43'4 4.0
2016-Mar-07 09:31N 01°10' E 103°47'1010.7
2016-Mar-07 08:32N 01°15' E 103°57'11 1.2
2016-Mar-06 23:33N 01°16' E 104°08'3 2.6
2016-Mar-06 22:33N 01°16' E 104°10'  

Dump ship's entire track history